createdAt,value
2018-09-03T00:01:04.316Z,18.80
2018-09-03T00:03:32.684Z,18.80
2018-09-03T00:06:01.076Z,18.80
2018-09-03T00:08:29.650Z,18.80
2018-09-03T00:10:58.046Z,18.80
2018-09-03T00:13:26.500Z,18.70
2018-09-03T00:15:54.900Z,18.80
2018-09-03T00:18:23.300Z,18.80
2018-09-03T00:20:51.716Z,18.80
2018-09-03T00:23:20.094Z,18.80
2018-09-03T00:25:48.476Z,18.70
2018-09-03T00:28:16.895Z,18.70
2018-09-03T00:30:45.284Z,18.70
2018-09-03T00:33:19.478Z,18.70
2018-09-03T00:35:53.156Z,18.70
2018-09-03T00:38:26.872Z,18.70
2018-09-03T00:41:00.631Z,18.80
2018-09-03T00:43:34.353Z,18.80
2018-09-03T00:46:08.060Z,18.80
2018-09-03T00:48:36.668Z,18.80
2018-09-03T00:51:05.195Z,18.80
2018-09-03T00:53:33.565Z,18.80
2018-09-03T00:56:01.982Z,18.80
2018-09-03T00:58:30.407Z,18.80
2018-09-03T01:00:59.692Z,18.80
2018-09-03T01:03:28.269Z,18.90
2018-09-03T01:05:56.648Z,18.80
2018-09-03T01:08:25.028Z,18.80
2018-09-03T01:10:53.425Z,18.70
2018-09-03T01:13:21.791Z,18.70
2018-09-03T01:15:50.166Z,18.70
2018-09-03T01:18:18.562Z,18.70
2018-09-03T01:20:47.968Z,18.60
2018-09-03T01:23:16.350Z,18.60
2018-09-03T01:25:44.780Z,18.50
2018-09-03T01:28:13.254Z,18.40
2018-09-03T01:30:41.630Z,18.40
2018-09-03T01:33:10.240Z,18.30
2018-09-03T01:35:38.621Z,18.30
2018-09-03T01:38:07.000Z,18.30
2018-09-03T01:40:35.390Z,18.30
2018-09-03T01:43:03.780Z,18.40
2018-09-03T01:45:32.160Z,18.40
2018-09-03T01:48:00.599Z,18.50
2018-09-03T01:50:28.993Z,18.50
2018-09-03T01:52:57.384Z,18.50
2018-09-03T01:55:25.764Z,18.50
2018-09-03T01:57:54.162Z,18.50
2018-09-03T02:00:22.584Z,18.50
2018-09-03T02:02:50.986Z,18.40
2018-09-03T02:05:19.380Z,18.40
2018-09-03T02:07:47.792Z,18.40
2018-09-03T02:10:16.172Z,18.40
2018-09-03T02:12:44.580Z,18.40
2018-09-03T02:15:12.968Z,18.30
2018-09-03T02:17:41.349Z,18.30
2018-09-03T02:20:09.808Z,18.30
2018-09-03T02:22:38.188Z,18.30
2018-09-03T02:25:07.160Z,18.30
2018-09-03T02:27:35.564Z,18.30
2018-09-03T02:30:04.060Z,18.30
2018-09-03T02:32:32.477Z,18.30
2018-09-03T02:35:00.870Z,18.30
2018-09-03T02:37:29.252Z,18.40
2018-09-03T02:39:57.851Z,18.40
2018-09-03T02:42:26.232Z,18.30
2018-09-03T02:44:54.617Z,18.40
2018-09-03T02:47:23.288Z,18.40
2018-09-03T02:49:51.681Z,18.40
2018-09-03T02:52:20.121Z,18.40
2018-09-03T02:54:48.535Z,18.50
2018-09-03T02:57:16.930Z,18.40
2018-09-03T02:59:45.409Z,18.50
2018-09-03T03:02:13.785Z,18.40
2018-09-03T03:04:42.189Z,18.40
2018-09-03T03:07:10.653Z,18.40
2018-09-03T03:09:39.049Z,18.40
2018-09-03T03:12:07.128Z,18.40
2018-09-03T03:14:35.564Z,18.30
2018-09-03T03:17:04.532Z,18.30
2018-09-03T03:19:33.156Z,18.30
2018-09-03T03:22:01.551Z,18.30
2018-09-03T03:24:29.932Z,18.20
2018-09-03T03:26:58.332Z,18.20
2018-09-03T03:29:26.728Z,18.20
2018-09-03T03:31:55.133Z,18.20
2018-09-03T03:34:23.544Z,18.10
2018-09-03T03:36:51.916Z,18.20
2018-09-03T03:39:20.346Z,18.10
2018-09-03T03:41:48.741Z,18.10
2018-09-03T03:44:17.125Z,18.10
2018-09-03T03:46:45.672Z,18.00
2018-09-03T03:49:14.049Z,17.90
2018-09-03T03:51:42.540Z,17.90
2018-09-03T03:54:10.941Z,17.90
2018-09-03T03:56:39.378Z,17.90
2018-09-03T03:59:07.791Z,17.90
2018-09-03T04:01:36.205Z,17.90
2018-09-03T04:04:04.595Z,17.90
2018-09-03T04:06:33.000Z,17.90
2018-09-03T04:09:01.371Z,17.90
2018-09-03T04:11:29.753Z,17.90
2018-09-03T04:13:58.292Z,18.00
2018-09-03T04:16:26.697Z,18.00
2018-09-03T04:18:55.082Z,18.00
2018-09-03T04:21:23.498Z,18.00
2018-09-03T04:23:51.894Z,18.10
2018-09-03T04:26:20.281Z,18.10
2018-09-03T04:28:48.732Z,18.10
2018-09-03T04:31:17.112Z,18.10
2018-09-03T04:33:47.731Z,18.10
2018-09-03T04:36:16.159Z,18.10
2018-09-03T04:38:44.646Z,18.00
2018-09-03T04:41:12.980Z,18.00
2018-09-03T04:43:41.371Z,18.00
2018-09-03T04:46:09.768Z,18.10
2018-09-03T04:48:38.182Z,18.10
2018-09-03T04:51:06.572Z,18.00
2018-09-03T04:53:34.976Z,18.10
2018-09-03T04:56:03.357Z,18.00
2018-09-03T04:58:31.772Z,18.00
2018-09-03T05:01:00.170Z,18.00
2018-09-03T05:03:28.548Z,18.00
2018-09-03T05:05:56.993Z,18.00
2018-09-03T05:08:25.351Z,18.00
2018-09-03T05:10:53.756Z,17.90
2018-09-03T05:13:22.371Z,18.00
2018-09-03T05:15:50.753Z,18.00
2018-09-03T05:18:19.197Z,17.90
2018-09-03T05:20:47.672Z,17.90
2018-09-03T05:23:16.120Z,17.90
2018-09-03T05:25:44.524Z,17.90
2018-09-03T05:28:12.949Z,17.90
2018-09-03T05:30:41.338Z,17.90
2018-09-03T05:33:09.838Z,18.00
2018-09-03T05:38:12.825Z,18.00
2018-09-03T05:40:41.521Z,17.90
2018-09-03T05:43:10.605Z,17.90
2018-09-03T05:45:38.994Z,17.90
2018-09-03T05:48:07.460Z,17.90
2018-09-03T05:50:35.903Z,17.90
2018-09-03T05:53:04.425Z,18.00
2018-09-03T05:55:32.897Z,17.90
2018-09-03T05:58:01.351Z,17.90
2018-09-03T06:00:29.998Z,17.90
2018-09-03T06:02:58.394Z,17.90
2018-09-03T06:05:26.874Z,18.00
2018-09-03T06:07:55.353Z,18.00
2018-09-03T06:10:23.929Z,18.10
2018-09-03T06:12:52.345Z,18.10
2018-09-03T06:15:20.774Z,18.20
2018-09-03T06:17:49.244Z,18.20
2018-09-03T06:20:17.637Z,18.30
2018-09-03T06:22:46.035Z,18.40
2018-09-03T06:25:14.464Z,18.40
2018-09-03T06:27:42.856Z,18.50
2018-09-03T06:30:11.257Z,18.50
2018-09-03T06:32:39.912Z,18.60
2018-09-03T06:35:08.353Z,18.70
2018-09-03T06:37:36.752Z,18.70
2018-09-03T06:40:05.240Z,18.80
2018-09-03T06:42:33.956Z,18.90
2018-09-03T06:45:02.392Z,18.90
2018-09-03T06:47:30.833Z,18.90
2018-09-03T06:49:59.280Z,19.00
2018-09-03T06:52:27.695Z,19.00
2018-09-03T06:54:56.160Z,19.00
2018-09-03T06:57:24.598Z,19.20
2018-09-03T06:59:53.226Z,19.30
2018-09-03T07:02:21.645Z,19.30
2018-09-03T07:04:50.025Z,19.40
2018-09-03T07:07:18.436Z,19.30
2018-09-03T07:09:46.885Z,19.30
2018-09-03T07:12:15.322Z,19.30
2018-09-03T07:14:43.713Z,19.20
2018-09-03T07:17:12.137Z,19.30
2018-09-03T07:19:40.536Z,19.40
2018-09-03T07:22:08.980Z,19.50
2018-09-03T07:24:37.386Z,19.50
2018-09-03T07:27:05.947Z,19.40
2018-09-03T07:29:34.409Z,19.40
2018-09-03T07:32:02.796Z,19.50
2018-09-03T07:34:31.196Z,19.40
2018-09-03T07:36:59.785Z,19.40
2018-09-03T07:39:28.184Z,19.40
2018-09-03T07:41:56.575Z,19.30
2018-09-03T07:44:25.157Z,19.20
2018-09-03T07:46:53.539Z,19.20
2018-09-03T07:49:21.932Z,19.10
2018-09-03T07:51:50.363Z,19.00
2018-09-03T07:54:18.808Z,19.10
2018-09-03T07:56:47.171Z,19.10
2018-09-03T07:59:15.589Z,19.10
2018-09-03T08:01:43.993Z,19.20
2018-09-03T08:04:12.385Z,19.30
2018-09-03T08:06:40.829Z,19.40
2018-09-03T08:09:10.877Z,19.40
2018-09-03T08:11:39.378Z,19.50
2018-09-03T08:14:07.720Z,19.40
2018-09-03T08:16:36.112Z,19.50
2018-09-03T08:19:04.546Z,19.60
2018-09-03T08:21:32.948Z,19.60
2018-09-03T08:24:01.385Z,19.70
2018-09-03T08:26:29.832Z,19.70
2018-09-03T08:28:58.224Z,19.70
2018-09-03T08:31:28.988Z,19.70
2018-09-03T08:33:57.394Z,19.60
2018-09-03T08:36:25.839Z,19.50
2018-09-03T08:38:54.407Z,19.40
2018-09-03T08:41:22.832Z,19.40
2018-09-03T08:43:51.236Z,19.30
2018-09-03T08:46:19.664Z,19.20
2018-09-03T08:48:48.149Z,19.10
2018-09-03T08:51:16.572Z,19.00
2018-09-03T08:53:44.985Z,18.90
2018-09-03T08:56:13.429Z,18.80
2018-09-03T08:58:42.026Z,18.70
2018-09-03T09:01:10.453Z,18.70
2018-09-03T09:03:41.428Z,18.60
2018-09-03T09:06:10.276Z,18.60
2018-09-03T09:08:38.722Z,18.60
2018-09-03T09:11:08.304Z,18.70
2018-09-03T09:13:36.726Z,18.80
2018-09-03T09:16:05.125Z,18.80
2018-09-03T09:18:33.520Z,18.80
2018-09-03T09:21:01.931Z,18.70
2018-09-03T09:23:30.348Z,18.70
2018-09-03T09:25:58.780Z,18.90
2018-09-03T09:28:27.172Z,18.90
2018-09-03T09:30:55.572Z,18.90
2018-09-03T09:33:24.211Z,18.90
2018-09-03T09:35:52.616Z,19.10
2018-09-03T09:38:21.031Z,19.20
2018-09-03T09:40:49.755Z,19.20
2018-09-03T09:43:18.158Z,19.20
2018-09-03T09:45:46.664Z,19.40
2018-09-03T09:48:15.315Z,19.40
2018-09-03T09:50:43.800Z,19.40
2018-09-03T09:53:12.217Z,19.50
2018-09-03T09:55:40.629Z,19.40
2018-09-03T09:58:09.051Z,19.40
2018-09-03T10:00:42.840Z,19.50
2018-09-03T10:03:11.279Z,19.70
2018-09-03T10:05:39.701Z,19.90
2018-09-03T10:08:08.210Z,20.20
2018-09-03T10:10:36.661Z,20.40
2018-09-03T10:13:05.108Z,20.60
2018-09-03T10:15:33.516Z,20.50
2018-09-03T10:18:01.937Z,20.30
2018-09-03T10:20:30.672Z,20.00
2018-09-03T10:22:59.065Z,19.90
2018-09-03T10:25:27.480Z,20.00
2018-09-03T10:27:55.901Z,20.00
2018-09-03T10:30:24.299Z,20.10
2018-09-03T10:32:52.736Z,20.30
2018-09-03T10:35:21.193Z,20.10
2018-09-03T10:37:49.612Z,19.90
2018-09-03T10:40:18.069Z,19.70
2018-09-03T10:42:46.560Z,19.50
2018-09-03T10:45:14.937Z,19.40
2018-09-03T10:47:43.621Z,19.40
2018-09-03T10:50:11.945Z,19.30
2018-09-03T10:52:40.353Z,19.10
2018-09-03T10:55:08.803Z,19.20
2018-09-03T10:57:37.223Z,19.40
2018-09-03T11:00:06.245Z,19.50
2018-09-03T11:02:34.662Z,19.70
2018-09-03T11:05:03.073Z,20.00
2018-09-03T11:07:31.479Z,20.30
2018-09-03T11:09:59.928Z,20.60
2018-09-03T11:12:28.325Z,20.60
2018-09-03T11:14:56.733Z,20.70
2018-09-03T11:17:25.205Z,20.90
2018-09-03T11:19:56.399Z,20.90
2018-09-03T11:22:25.750Z,20.80
2018-09-03T11:24:54.353Z,20.40
2018-09-03T11:27:23.221Z,20.40
2018-09-03T11:29:51.613Z,20.30
2018-09-03T11:32:20.009Z,20.40
2018-09-03T11:34:48.425Z,21.30
2018-09-03T11:37:16.807Z,22.00
2018-09-03T11:39:45.228Z,22.50
2018-09-03T11:42:13.741Z,22.70
2018-09-03T11:44:42.165Z,22.80
2018-09-03T11:47:10.642Z,22.80
2018-09-03T11:49:39.165Z,23.10
2018-09-03T11:52:07.876Z,23.60
2018-09-03T11:54:36.424Z,23.80
2018-09-03T11:57:04.821Z,24.00
2018-09-03T11:59:33.365Z,24.10
2018-09-03T12:02:02.476Z,24.00
2018-09-03T12:04:31.108Z,23.70
2018-09-03T12:06:59.520Z,23.50
2018-09-03T12:09:27.946Z,23.30
2018-09-03T12:11:56.321Z,23.00
2018-09-03T12:14:27.240Z,23.20
2018-09-03T12:16:56.109Z,23.40
2018-09-03T12:19:24.521Z,23.50
2018-09-03T12:21:52.937Z,23.60
2018-09-03T12:24:21.341Z,23.20
2018-09-03T12:26:49.741Z,23.20
2018-09-03T12:29:18.181Z,23.30
2018-09-03T12:31:46.590Z,23.40
2018-09-03T12:34:15.165Z,23.30
2018-09-03T12:36:43.580Z,23.20
2018-09-03T12:39:11.979Z,23.20
2018-09-03T12:41:40.421Z,23.20
2018-09-03T12:44:08.843Z,23.00
2018-09-03T12:46:37.267Z,23.00
2018-09-03T12:49:05.756Z,23.10
2018-09-03T12:51:34.158Z,23.20
2018-09-03T12:54:02.544Z,23.50
2018-09-03T12:56:31.013Z,23.70
2018-09-03T12:58:59.420Z,24.00
2018-09-03T13:01:28.042Z,24.20
2018-09-03T13:03:56.450Z,24.30
2018-09-03T13:06:24.861Z,24.60
2018-09-03T13:08:53.305Z,24.60
2018-09-03T13:11:21.826Z,24.40
2018-09-03T13:13:50.638Z,24.10
2018-09-03T13:16:19.041Z,24.00
2018-09-03T13:18:47.433Z,23.90
2018-09-03T13:21:16.096Z,23.70
2018-09-03T13:23:45.205Z,24.00
2018-09-03T13:26:13.704Z,24.20
2018-09-03T13:28:42.155Z,24.60
2018-09-03T13:31:10.656Z,24.80
2018-09-03T13:33:39.135Z,24.70
2018-09-03T13:36:07.698Z,25.10
2018-09-03T13:38:36.063Z,25.30
2018-09-03T13:41:04.543Z,25.30
2018-09-03T13:43:32.973Z,25.40
2018-09-03T13:46:01.420Z,25.20
2018-09-03T13:48:29.852Z,24.80
2018-09-03T13:50:58.252Z,24.60
2018-09-03T13:53:26.845Z,24.40
2018-09-03T13:55:55.289Z,24.30
2018-09-03T13:58:23.681Z,24.30
2018-09-03T14:00:52.123Z,24.30
2018-09-03T14:03:20.700Z,24.30
2018-09-03T14:05:49.548Z,24.30
2018-09-03T14:08:17.958Z,24.50
2018-09-03T14:10:46.364Z,24.80
2018-09-03T14:13:14.788Z,25.10
2018-09-03T14:15:43.226Z,25.00
2018-09-03T14:18:11.780Z,24.50
2018-09-03T14:20:40.462Z,24.20
2018-09-03T14:23:08.888Z,24.10
2018-09-03T14:25:37.296Z,23.90
2018-09-03T14:28:06.185Z,24.00
2018-09-03T14:30:34.590Z,23.90
2018-09-03T14:33:03.101Z,23.70
2018-09-03T14:35:31.552Z,23.70
2018-09-03T14:38:00.031Z,24.10
2018-09-03T14:40:28.615Z,24.30
2018-09-03T14:42:57.051Z,24.40
2018-09-03T14:45:25.522Z,24.40
2018-09-03T14:47:54.041Z,24.40
2018-09-03T14:50:22.436Z,24.20
2018-09-03T14:52:50.977Z,24.20
2018-09-03T14:55:19.475Z,24.00
2018-09-03T14:57:47.977Z,24.00
2018-09-03T15:00:16.612Z,23.80
2018-09-03T15:02:45.320Z,23.40
2018-09-03T15:05:13.749Z,23.20
2018-09-03T15:07:42.516Z,23.20
2018-09-03T15:10:12.126Z,23.30
2018-09-03T15:12:42.556Z,23.50
2018-09-03T15:15:11.128Z,23.60
2018-09-03T15:17:39.578Z,23.60
2018-09-03T15:20:08.190Z,23.70
2018-09-03T15:22:36.592Z,23.70
2018-09-03T15:25:05.604Z,23.70
2018-09-03T15:27:34.317Z,23.60
2018-09-03T15:30:02.757Z,23.60
2018-09-03T15:32:31.261Z,23.50
2018-09-03T15:34:59.668Z,23.50
2018-09-03T15:37:28.317Z,23.50
2018-09-03T15:39:56.835Z,23.50
2018-09-03T15:42:25.301Z,23.40
2018-09-03T15:44:53.771Z,23.30
2018-09-03T15:47:22.331Z,23.20
2018-09-03T15:49:50.788Z,23.20
2018-09-03T15:52:19.221Z,23.00
2018-09-03T15:54:47.671Z,22.90
2018-09-03T15:57:16.141Z,22.90
2018-09-03T15:59:44.597Z,23.00
2018-09-03T16:02:13.004Z,23.00
2018-09-03T16:04:41.425Z,23.00
2018-09-03T16:07:09.920Z,23.00
2018-09-03T16:09:38.564Z,23.00
2018-09-03T16:12:07.216Z,23.00
2018-09-03T16:14:35.687Z,22.90
2018-09-03T16:17:04.121Z,22.90
2018-09-03T16:19:32.540Z,22.90
2018-09-03T16:22:01.022Z,22.90
2018-09-03T16:24:29.652Z,22.80
2018-09-03T16:26:58.074Z,22.80
2018-09-03T16:29:26.697Z,22.70
2018-09-03T16:31:55.139Z,22.60
2018-09-03T16:34:23.534Z,22.60
2018-09-03T16:36:51.998Z,22.50
2018-09-03T16:39:20.609Z,22.50
2018-09-03T16:41:49.078Z,22.40
2018-09-03T16:44:17.536Z,22.40
2018-09-03T16:46:46.109Z,22.30
2018-09-03T16:49:14.509Z,22.40
2018-09-03T16:51:42.954Z,22.40
2018-09-03T16:54:11.410Z,22.40
2018-09-03T16:56:40.057Z,22.30
2018-09-03T16:59:08.573Z,22.30
2018-09-03T17:01:36.985Z,22.30
2018-09-03T17:04:06.051Z,22.40
2018-09-03T17:06:34.732Z,22.30
2018-09-03T17:09:03.496Z,22.30
2018-09-03T17:11:31.981Z,22.30
2018-09-03T17:14:00.497Z,22.30
2018-09-03T17:16:28.979Z,22.30
2018-09-03T17:18:57.416Z,22.20
2018-09-03T17:21:25.995Z,22.20
2018-09-03T17:23:54.440Z,22.10
2018-09-03T17:26:23.042Z,22.10
2018-09-03T17:28:51.468Z,22.10
2018-09-03T17:31:19.920Z,22.00
2018-09-03T17:33:48.340Z,22.00
2018-09-03T17:36:16.748Z,21.90
2018-09-03T17:38:45.225Z,21.90
2018-09-03T17:41:13.874Z,21.80
2018-09-03T17:43:42.307Z,21.80
2018-09-03T17:46:10.716Z,21.80
2018-09-03T17:48:39.204Z,21.70
2018-09-03T17:51:07.625Z,21.70
2018-09-03T17:53:36.216Z,21.60
2018-09-03T17:56:04.844Z,21.60
2018-09-03T17:58:33.332Z,21.50
2018-09-03T18:01:02.256Z,21.50
2018-09-03T18:03:30.781Z,21.50
2018-09-03T18:05:59.289Z,21.50
2018-09-03T18:08:27.852Z,21.40
2018-09-03T18:10:56.239Z,21.30
2018-09-03T18:13:24.672Z,21.30
2018-09-03T18:15:53.080Z,21.20
2018-09-03T18:18:21.644Z,21.20
2018-09-03T18:20:50.739Z,21.20
2018-09-03T18:23:19.788Z,21.20
2018-09-03T18:25:48.249Z,21.20
2018-09-03T18:28:17.626Z,21.10
2018-09-03T18:30:46.665Z,21.10
2018-09-03T18:33:15.273Z,21.10
2018-09-03T18:35:43.752Z,21.00
2018-09-03T18:38:12.233Z,21.00
2018-09-03T18:40:40.688Z,21.00
2018-09-03T18:43:09.869Z,20.90
2018-09-03T18:45:39.103Z,20.80
2018-09-03T18:48:07.685Z,20.80
2018-09-03T18:50:39.149Z,20.70
2018-09-03T18:53:07.679Z,20.60
2018-09-03T18:55:36.790Z,20.60
2018-09-03T18:58:05.561Z,20.50
2018-09-03T19:00:34.097Z,20.50
2018-09-03T19:03:02.988Z,20.40
2018-09-03T19:05:31.746Z,20.40
2018-09-03T19:08:00.504Z,20.40
2018-09-03T19:10:29.351Z,20.40
2018-09-03T19:12:58.267Z,20.40
2018-09-03T19:15:27.081Z,20.40
2018-09-03T19:17:55.529Z,20.40
2018-09-03T19:20:24.270Z,20.40
2018-09-03T19:22:54.008Z,20.40
2018-09-03T19:25:22.562Z,20.30
2018-09-03T19:27:51.371Z,20.20
2018-09-03T19:30:20.165Z,20.20
2018-09-03T19:32:48.788Z,20.20
2018-09-03T19:35:17.320Z,20.20
2018-09-03T19:37:46.013Z,20.20
2018-09-03T19:40:14.657Z,20.20
2018-09-03T19:42:43.089Z,20.10
2018-09-03T19:45:12.266Z,20.10
2018-09-03T19:47:40.748Z,20.00
2018-09-03T19:50:10.280Z,20.00
2018-09-03T19:52:38.893Z,20.00
2018-09-03T19:55:07.533Z,20.00
2018-09-03T19:57:36.029Z,19.90
2018-09-03T20:00:04.692Z,19.90
2018-09-03T20:02:33.176Z,19.80
2018-09-03T20:05:01.604Z,19.80
2018-09-03T20:07:30.091Z,19.70
2018-09-03T20:09:59.168Z,19.70
2018-09-03T20:12:27.605Z,19.80
2018-09-03T20:14:56.188Z,19.80
2018-09-03T20:17:24.633Z,19.80
2018-09-03T20:19:53.868Z,19.80
2018-09-03T20:22:22.337Z,19.90
2018-09-03T20:24:50.790Z,19.90
2018-09-03T20:27:19.239Z,19.90
2018-09-03T20:29:47.773Z,20.00
2018-09-03T20:32:16.283Z,20.00
2018-09-03T20:34:44.697Z,20.00
2018-09-03T20:37:13.189Z,20.10
2018-09-03T20:39:41.569Z,20.10
2018-09-03T20:42:10.034Z,20.00
2018-09-03T20:44:38.489Z,20.00
2018-09-03T20:47:06.913Z,19.90
2018-09-03T20:49:35.532Z,19.90
2018-09-03T20:52:03.933Z,19.90
2018-09-03T20:54:32.344Z,19.80
2018-09-03T20:57:01.012Z,19.80
2018-09-03T20:59:29.459Z,19.80
2018-09-03T21:01:57.852Z,19.80
2018-09-03T21:04:26.307Z,19.80
2018-09-03T21:06:54.769Z,19.70
2018-09-03T21:09:23.409Z,19.70
2018-09-03T21:11:51.814Z,19.60
2018-09-03T21:14:20.215Z,19.60
2018-09-03T21:16:48.648Z,19.60
2018-09-03T21:19:17.020Z,19.60
2018-09-03T21:21:45.460Z,19.60
2018-09-03T21:24:13.832Z,19.50
2018-09-03T21:26:42.345Z,19.50
2018-09-03T21:29:10.773Z,19.50
2018-09-03T21:31:39.190Z,19.50
2018-09-03T21:34:07.620Z,19.50
2018-09-03T21:36:36.048Z,19.40
2018-09-03T21:39:06.084Z,19.40
2018-09-03T21:41:34.461Z,19.40
2018-09-03T21:44:03.170Z,19.40
2018-09-03T21:46:31.708Z,19.50
2018-09-03T21:49:00.129Z,19.50
2018-09-03T21:51:28.617Z,19.50
2018-09-03T21:53:57.028Z,19.50
2018-09-03T21:56:25.667Z,19.50
2018-09-03T21:58:54.069Z,19.40
2018-09-03T22:01:22.465Z,19.40
2018-09-03T22:03:51.108Z,19.40
2018-09-03T22:06:19.521Z,19.40
2018-09-03T22:08:47.960Z,19.40
2018-09-03T22:11:16.649Z,19.40
2018-09-03T22:13:45.056Z,19.40
2018-09-03T22:16:13.461Z,19.40
2018-09-03T22:18:42.078Z,19.40
2018-09-03T22:21:10.515Z,19.40
2018-09-03T22:23:39.233Z,19.40
2018-09-03T22:26:07.932Z,19.40
2018-09-03T22:28:36.351Z,19.40
2018-09-03T22:31:04.968Z,19.40
2018-09-03T22:33:33.388Z,19.40
2018-09-03T22:36:01.805Z,19.30
2018-09-03T22:38:30.214Z,19.30
2018-09-03T22:40:58.821Z,19.30
2018-09-03T22:43:27.212Z,19.20
2018-09-03T22:45:55.649Z,19.20
2018-09-03T22:48:24.076Z,19.20
2018-09-03T22:50:52.492Z,19.10
2018-09-03T22:53:20.913Z,19.00
2018-09-03T22:55:49.337Z,19.00
2018-09-03T22:58:17.742Z,18.90
2018-09-03T23:00:46.764Z,18.80
2018-09-03T23:03:15.181Z,18.80
2018-09-03T23:05:43.638Z,18.70
2018-09-03T23:08:12.028Z,18.60
2018-09-03T23:10:40.415Z,18.60
2018-09-03T23:13:08.824Z,18.60
2018-09-03T23:15:37.231Z,18.50
2018-09-03T23:18:05.861Z,18.50
2018-09-03T23:20:34.498Z,18.50
2018-09-03T23:23:02.882Z,18.40
2018-09-03T23:25:31.269Z,18.30
2018-09-03T23:27:59.792Z,18.20
2018-09-03T23:30:28.251Z,18.10
2018-09-03T23:32:56.653Z,18.10
2018-09-03T23:35:25.073Z,18.00
2018-09-03T23:37:53.458Z,17.90
2018-09-03T23:40:21.836Z,17.90
2018-09-03T23:42:50.251Z,17.90
2018-09-03T23:45:20.336Z,17.90
2018-09-03T23:47:48.892Z,17.90
2018-09-03T23:50:17.288Z,17.90
2018-09-03T23:52:45.701Z,17.90
2018-09-03T23:55:14.295Z,17.80
2018-09-03T23:57:42.680Z,17.80
